Terminal Aerodrome Forecast
Issued by NWS

Home | Current Version | Previous Version | Text Only | Print | Product List | Glossary On
Versions: 1 2 3 4 5 6 7 8 9 10 11 12 13 14 15 16 17
000
FTUS46 KLOX 221740
TAFOXR
TAF
KOXR 221740Z 2218/2318 26006KT P6SM SKC
     FM222100 26011KT P6SM SKC
     FM230300 28004KT P6SM SKC
     FM230500 VRB03KT P6SM SKC
     FM231100 VRB03KT 1 1/2SM BR OVC002
     FM231300 VRB03KT 1/2SM FG VV001
     FM231600 VRB03KT 2SM BR OVC003=

USA.gov is the U.S. government's official web portal to all federal, state and local government web resources and services.